Terminal Aerodrome Forecast
Issued by NWS Wilmington, OH

Current Version | Previous Version | Graphics & Text | Print | Product List | Glossary On
Versions: 1 2 3 4 5 6 7 8 9 10 11 12 13 14 15 16 17 18 19 20 21
000
FTUS41 KILN 261736
TAFILN
TAF
KILN 261736Z 2618/2718 26014KT P6SM BKN040
     FM270300 19008KT P6SM -SHRA VCTS SCT025 BKN035CB
      TEMPO 2704/2706 4SM -TSRA OVC025CB
     FM270800 22009KT P6SM VCSH OVC008
     FM271300 27010KT P6SM SCT025=

USA.gov is the U.S. government's official web portal to all federal, state and local government web resources and services.